createdAt,value
2022-08-19T00:02:18.056Z,101016.88
2022-08-19T00:04:48.182Z,101030.44
2022-08-19T00:07:15.932Z,101043.22
2022-08-19T00:09:43.460Z,101037.53
2022-08-19T00:12:11.560Z,101039.44
2022-08-19T00:14:40.470Z,101044.38
2022-08-19T00:17:09.653Z,101037.00
2022-08-19T00:19:38.171Z,101038.63
2022-08-19T00:22:06.519Z,101053.25
2022-08-19T00:24:34.045Z,101046.69
2022-08-19T00:27:26.533Z,101048.00
2022-08-19T00:29:52.530Z,101055.34
2022-08-19T00:32:21.041Z,101048.28
2022-08-19T00:34:48.498Z,101054.84
2022-08-19T00:37:15.995Z,101067.63
2022-08-19T00:39:43.586Z,101072.84
2022-08-19T00:42:15.661Z,101067.16
2022-08-19T00:44:44.395Z,101077.47
2022-08-19T00:47:14.187Z,101083.72
2022-08-19T00:49:50.049Z,101070.75
2022-08-19T00:52:24.258Z,101069.91
2022-08-19T00:54:54.201Z,101073.44
2022-08-19T00:57:29.897Z,101060.09
2022-08-19T01:00:03.098Z,101057.66
2022-08-19T01:02:33.662Z,101061.47
2022-08-19T01:05:03.935Z,101065.56
2022-08-19T01:07:37.901Z,101060.41
2022-08-19T01:10:08.901Z,101055.56
2022-08-19T01:12:36.523Z,101046.28
2022-08-19T01:15:05.797Z,101028.34
2022-08-19T01:17:34.339Z,101024.50
2022-08-19T01:20:01.944Z,101025.09
2022-08-19T01:22:36.038Z,101022.94
2022-08-19T01:25:04.445Z,101019.69
2022-08-19T01:27:43.275Z,101009.69
2022-08-19T01:30:15.704Z,101018.13
2022-08-19T01:32:44.556Z,101024.38
2022-08-19T01:35:18.160Z,101021.66
2022-08-19T01:37:48.488Z,101037.13
2022-08-19T01:40:17.200Z,101025.94
2022-08-19T01:42:44.730Z,101021.59
2022-08-19T01:45:12.298Z,101027.28
2022-08-19T01:47:39.813Z,101019.66
2022-08-19T01:50:10.248Z,101011.69
2022-08-19T01:52:39.579Z,101006.56
2022-08-19T01:55:10.184Z,101017.38
2022-08-19T01:57:39.335Z,101013.84
2022-08-19T02:00:11.497Z,101007.38
2022-08-19T02:02:39.283Z,101001.63
2022-08-19T02:05:10.647Z,101012.00
2022-08-19T02:07:41.218Z,101016.94
2022-08-19T02:10:16.626Z,101016.94
2022-08-19T02:12:45.083Z,101014.78
2022-08-19T02:15:13.175Z,101020.19
2022-08-19T02:17:41.262Z,101027.22
2022-08-19T02:20:10.418Z,101033.19
2022-08-19T02:22:38.026Z,101023.94
2022-08-19T02:25:06.210Z,101009.28
2022-08-19T02:27:34.649Z,101010.84
2022-08-19T02:30:02.622Z,101006.22
2022-08-19T02:32:31.854Z,101014.91
2022-08-19T02:34:59.352Z,101014.31
2022-08-19T02:37:45.732Z,101001.75
2022-08-19T02:40:13.759Z,100993.59
2022-08-19T02:42:42.164Z,100994.34
2022-08-19T02:45:10.532Z,100997.66
2022-08-19T02:47:39.128Z,101013.63
2022-08-19T02:50:08.217Z,101030.50
2022-08-19T02:52:36.451Z,101047.06
2022-08-19T02:55:04.997Z,101046.47
2022-08-19T02:57:33.095Z,101054.88
2022-08-19T03:00:00.620Z,101068.22
2022-08-19T03:02:28.679Z,101079.94
2022-08-19T03:04:56.230Z,101094.13
2022-08-19T03:07:23.822Z,101128.13
2022-08-19T03:09:54.116Z,101120.44
2022-08-19T03:12:21.601Z,101125.28
2022-08-19T03:14:49.241Z,101118.72
2022-08-19T03:17:16.763Z,101099.97
2022-08-19T03:19:44.476Z,101064.84
2022-08-19T03:22:12.461Z,101066.47
2022-08-19T03:24:40.289Z,101087.13
2022-08-19T03:27:08.001Z,101089.28
2022-08-19T03:29:43.969Z,101088.63
2022-08-19T03:32:19.827Z,101063.53
2022-08-19T03:34:59.552Z,101050.72
2022-08-19T03:37:30.119Z,101088.84
2022-08-19T03:39:57.631Z,101109.69
2022-08-19T03:42:38.735Z,101096.22
2022-08-19T03:45:13.847Z,101092.13
2022-08-19T03:47:41.296Z,101088.28
2022-08-19T03:50:12.107Z,101093.22
2022-08-19T03:52:40.678Z,101092.16
2022-08-19T03:55:13.030Z,101089.97
2022-08-19T03:57:40.564Z,101103.59
2022-08-19T04:00:13.082Z,101086.41
2022-08-19T04:02:58.060Z,101090.78
2022-08-19T04:05:29.845Z,101105.91
2022-08-19T04:08:00.441Z,101101.16
2022-08-19T04:10:29.459Z,101101.13
2022-08-19T04:12:56.886Z,101089.09
2022-08-19T04:15:24.406Z,101087.44
2022-08-19T04:17:51.912Z,101080.88
2022-08-19T04:20:19.578Z,101086.84
2022-08-19T04:22:47.490Z,101084.63
2022-08-19T04:25:17.021Z,101063.91
2022-08-19T04:27:47.690Z,101048.06
2022-08-19T04:30:16.249Z,101038.50
2022-08-19T04:32:45.054Z,101040.41
2022-08-19T04:35:16.727Z,101053.25
2022-08-19T04:37:46.425Z,101062.44
2022-08-19T04:40:33.381Z,101080.72
2022-08-19T04:43:02.286Z,101074.16
2022-08-19T04:45:32.727Z,101076.31
2022-08-19T04:48:26.932Z,101080.13
2022-08-19T04:51:00.799Z,101086.47
2022-08-19T04:53:35.539Z,101101.44
2022-08-19T04:56:14.888Z,101100.91
2022-08-19T04:58:45.314Z,101106.69
2022-08-19T05:01:20.063Z,101109.19
2022-08-19T05:03:48.620Z,101104.25
2022-08-19T05:06:17.679Z,101099.63
2022-08-19T05:08:45.840Z,101090.00
2022-08-19T05:11:22.439Z,101103.28
2022-08-19T05:13:53.957Z,101124.97
2022-08-19T05:16:24.056Z,101149.66
2022-08-19T05:19:10.209Z,101131.50
2022-08-19T05:21:56.332Z,101116.19
2022-08-19T05:24:24.971Z,101106.66
2022-08-19T05:26:57.705Z,101100.38
2022-08-19T05:29:27.717Z,101082.38
2022-08-19T05:32:06.493Z,101088.22
2022-08-19T05:34:36.103Z,101085.28
2022-08-19T05:37:05.870Z,101070.00
2022-08-19T05:39:36.207Z,101068.38
2022-08-19T05:42:10.116Z,101092.94
2022-08-19T05:44:41.175Z,101097.28
2022-08-19T05:47:10.266Z,101088.81
2022-08-19T05:49:38.671Z,101090.16
2022-08-19T05:52:08.926Z,101094.50
2022-08-19T05:54:39.245Z,101100.78
2022-08-19T05:57:07.136Z,101107.03
2022-08-19T05:59:39.614Z,101098.84
2022-08-19T06:02:08.761Z,101091.47
2022-08-19T06:04:36.726Z,101096.31
2022-08-19T06:07:12.337Z,101111.53
2022-08-19T06:09:43.693Z,101106.78
2022-08-19T06:12:30.060Z,101106.44
2022-08-19T06:15:01.036Z,101111.50
2022-08-19T06:17:31.941Z,101115.28
2022-08-19T06:20:11.236Z,101106.78
2022-08-19T06:22:43.248Z,101103.97
2022-08-19T06:25:11.501Z,101088.63
2022-08-19T06:27:48.354Z,101088.22
2022-08-19T06:30:26.788Z,101085.88
2022-08-19T06:32:54.851Z,101104.34
2022-08-19T06:35:22.520Z,101103.63
2022-08-19T06:37:51.187Z,101101.59
2022-08-19T06:40:18.902Z,101100.13
2022-08-19T06:42:55.011Z,101111.16
2022-08-19T06:45:24.813Z,101114.81
2022-08-19T06:47:57.152Z,101107.81
2022-08-19T06:50:26.203Z,101117.94
2022-08-19T06:52:55.530Z,101118.84
2022-08-19T06:55:23.362Z,101108.28
2022-08-19T06:57:54.714Z,101102.22
2022-08-19T07:00:22.441Z,101104.66
2022-08-19T07:02:55.817Z,101100.97
2022-08-19T07:05:27.055Z,101098.16
2022-08-19T07:07:57.537Z,101097.53
2022-08-19T07:10:26.595Z,101101.41
2022-08-19T07:12:55.260Z,101096.44
2022-08-19T07:15:22.876Z,101097.53
2022-08-19T07:17:52.533Z,101109.28
2022-08-19T07:20:20.934Z,101101.41
2022-08-19T07:22:49.374Z,101103.63
2022-08-19T07:25:19.123Z,101107.78
2022-08-19T07:27:46.631Z,101104.44
2022-08-19T07:30:23.550Z,101106.06
2022-08-19T07:32:53.976Z,101111.72
2022-08-19T07:35:21.768Z,101111.09
2022-08-19T07:37:49.345Z,101109.28
2022-08-19T07:40:17.118Z,101099.03
2022-08-19T07:42:44.713Z,101109.25
2022-08-19T07:45:12.491Z,101106.06
2022-08-19T07:47:48.288Z,101103.72
2022-08-19T07:50:21.086Z,101101.03
2022-08-19T07:52:51.065Z,101097.75
2022-08-19T07:55:41.202Z,101099.91
2022-08-19T07:58:11.227Z,101115.66
2022-08-19T08:00:38.906Z,101104.13
2022-08-19T08:03:06.594Z,101112.28
2022-08-19T08:05:52.425Z,101104.25
2022-08-19T08:08:44.330Z,101101.59
2022-08-19T08:11:21.327Z,101092.97
2022-08-19T08:14:00.723Z,101101.22
2022-08-19T08:16:47.333Z,101090.47
2022-08-19T08:19:25.472Z,101096.59
2022-08-19T08:21:55.351Z,101086.22
2022-08-19T08:24:23.426Z,101085.91
2022-08-19T08:26:59.845Z,101089.97
2022-08-19T08:29:34.746Z,101091.41
2022-08-19T08:32:14.823Z,101097.75
2022-08-19T08:34:43.604Z,101093.25
2022-08-19T08:37:11.247Z,101073.09
2022-08-19T08:39:39.864Z,101091.13
2022-08-19T08:42:33.973Z,101088.44
2022-08-19T08:45:19.257Z,101108.53
2022-08-19T08:47:52.306Z,101081.75
2022-08-19T08:50:23.892Z,101097.88
2022-08-19T08:52:58.388Z,101105.22
2022-08-19T08:55:36.595Z,101097.94
2022-08-19T08:58:15.094Z,101104.34
2022-08-19T09:00:46.799Z,101115.53
2022-08-19T09:03:27.392Z,101111.53
2022-08-19T09:06:12.009Z,101105.78
2022-08-19T09:09:03.447Z,101129.94
2022-08-19T09:11:41.927Z,101101.38
2022-08-19T09:14:40.609Z,101111.13
2022-08-19T09:17:10.679Z,101098.47
2022-08-19T09:19:51.763Z,101094.13
2022-08-19T09:22:25.374Z,101120.97
2022-08-19T09:24:53.731Z,101111.41
2022-08-19T09:27:42.519Z,101115.53
2022-08-19T09:30:17.346Z,101112.22
2022-08-19T09:32:45.792Z,101119.03
2022-08-19T09:35:15.216Z,101128.94
2022-08-19T09:37:44.916Z,101147.78
2022-08-19T09:40:13.722Z,101148.22
2022-08-19T09:42:50.426Z,101165.94
2022-08-19T09:45:23.234Z,101138.22
2022-08-19T09:47:54.504Z,101151.06
2022-08-19T09:50:24.143Z,101171.78
2022-08-19T09:52:57.442Z,101190.06
2022-08-19T09:55:31.160Z,101173.50
2022-08-19T09:58:03.001Z,101180.53
2022-08-19T10:00:34.785Z,101197.31
2022-08-19T10:03:02.234Z,101194.31
2022-08-19T10:05:49.262Z,101208.84
2022-08-19T10:08:20.580Z,101195.03
2022-08-19T10:10:49.786Z,101205.31
2022-08-19T10:13:32.904Z,101198.41
2022-08-19T10:16:10.313Z,101202.97
2022-08-19T10:18:38.957Z,101218.28
2022-08-19T10:21:15.602Z,101212.63
2022-08-19T10:23:46.450Z,101231.09
2022-08-19T10:26:24.409Z,101203.16
2022-08-19T10:28:55.074Z,101221.84
2022-08-19T10:32:01.215Z,101220.09
2022-08-19T10:34:27.492Z,101210.56
2022-08-19T10:37:01.120Z,101206.22
2022-08-19T10:39:32.641Z,101217.16
2022-08-19T10:42:14.488Z,101247.00
2022-08-19T10:44:42.955Z,101248.00
2022-08-19T10:47:17.504Z,101238.56
2022-08-19T10:50:14.154Z,101234.63
2022-08-19T10:52:49.266Z,101211.41
2022-08-19T10:55:40.014Z,101230.97
2022-08-19T10:58:23.329Z,101269.84
2022-08-19T11:00:56.409Z,101243.88
2022-08-19T11:03:25.017Z,101228.00
2022-08-19T11:06:02.686Z,101246.69
2022-08-19T11:08:31.825Z,101229.94
2022-08-19T11:11:02.497Z,101253.94
2022-08-19T11:13:38.951Z,101267.53
2022-08-19T11:16:19.467Z,101255.78
2022-08-19T11:18:52.549Z,101269.78
2022-08-19T11:21:28.574Z,101244.00
2022-08-19T11:23:59.071Z,101256.31
2022-08-19T11:26:29.308Z,101246.28
2022-08-19T11:28:58.021Z,101244.16
2022-08-19T11:31:29.447Z,101236.91
2022-08-19T11:34:02.740Z,101231.41
2022-08-19T11:36:32.602Z,101244.34
2022-08-19T11:39:00.468Z,101237.53
2022-08-19T11:41:28.488Z,101236.53
2022-08-19T11:43:56.426Z,101253.81
2022-08-19T11:46:30.688Z,101229.00
2022-08-19T11:49:00.557Z,101237.53
2022-08-19T11:51:29.158Z,101239.16
2022-08-19T11:53:58.815Z,101246.94
2022-08-19T11:56:30.122Z,101240.53
2022-08-19T11:58:58.127Z,101233.94
2022-08-19T12:01:27.485Z,101198.44
2022-08-19T12:03:56.634Z,101254.50
2022-08-19T12:06:30.441Z,101219.22
2022-08-19T12:09:03.920Z,101231.38
2022-08-19T12:11:34.378Z,101230.28
2022-08-19T12:14:02.569Z,101223.41
2022-08-19T12:16:31.957Z,101256.66
2022-08-19T12:19:05.079Z,101214.81
2022-08-19T12:21:35.275Z,101243.66
2022-08-19T12:24:05.622Z,101230.41
2022-08-19T12:26:34.256Z,101234.19
2022-08-19T12:29:04.327Z,101204.69
2022-08-19T12:31:32.365Z,101228.81
2022-08-19T12:34:00.117Z,101236.88
2022-08-19T12:36:27.662Z,101219.66
2022-08-19T12:38:55.313Z,101220.56
2022-08-19T12:41:23.536Z,101267.41
2022-08-19T12:43:51.366Z,101241.72
2022-08-19T12:46:22.308Z,101284.75
2022-08-19T12:48:55.374Z,101234.06
2022-08-19T12:51:24.015Z,101233.13
2022-08-19T12:53:51.510Z,101238.44
2022-08-19T12:56:23.178Z,101250.47
2022-08-19T12:58:53.004Z,101254.56
2022-08-19T13:01:23.003Z,101227.34
2022-08-19T13:03:53.719Z,101265.19
2022-08-19T13:06:21.855Z,101250.00
2022-08-19T13:08:49.382Z,101263.09
2022-08-19T13:11:20.031Z,101280.31
2022-08-19T13:13:49.892Z,101269.75
2022-08-19T13:16:18.482Z,101281.00
2022-08-19T13:18:54.112Z,101275.19
2022-08-19T13:21:24.261Z,101288.84
2022-08-19T13:23:52.892Z,101277.50
2022-08-19T13:26:20.555Z,101260.94
2022-08-19T13:29:07.065Z,101274.09
2022-08-19T13:31:55.754Z,101293.69
2022-08-19T13:34:34.238Z,101290.28
2022-08-19T13:37:05.900Z,101289.19
2022-08-19T13:39:34.662Z,101252.81
2022-08-19T13:42:05.990Z,101281.28
2022-08-19T13:44:33.522Z,101272.88
2022-08-19T13:47:10.019Z,101291.50
2022-08-19T13:49:37.890Z,101292.34
2022-08-19T13:52:06.964Z,101284.09
2022-08-19T13:54:34.556Z,101285.22
2022-08-19T13:57:09.698Z,101345.75
2022-08-19T13:59:37.411Z,101269.19
2022-08-19T14:02:06.694Z,101276.19
2022-08-19T14:04:34.179Z,101298.19
2022-08-19T14:07:02.821Z,101315.94
2022-08-19T14:09:30.921Z,101313.38
2022-08-19T14:11:58.765Z,101310.63
2022-08-19T14:14:26.289Z,101307.53
2022-08-19T14:16:53.810Z,101321.13
2022-08-19T14:19:21.311Z,101324.22
2022-08-19T14:21:49.186Z,101308.03
2022-08-19T14:24:16.738Z,101320.47
2022-08-19T14:26:44.247Z,101302.53
2022-08-19T14:29:11.740Z,101308.34
2022-08-19T14:31:43.661Z,101303.97
2022-08-19T14:34:12.172Z,101332.28
2022-08-19T14:36:39.976Z,101325.16
2022-08-19T14:39:10.707Z,101320.66
2022-08-19T14:41:41.084Z,101322.28
2022-08-19T14:44:11.211Z,101308.84
2022-08-19T14:46:38.753Z,101322.41
2022-08-19T14:49:09.483Z,101309.31
2022-08-19T14:51:37.215Z,101318.22
2022-08-19T14:54:04.971Z,101338.09
2022-08-19T14:56:32.580Z,101326.59
2022-08-19T14:59:02.203Z,101321.13
2022-08-19T15:01:30.773Z,101326.94
2022-08-19T15:03:58.307Z,101328.06
2022-08-19T15:06:27.033Z,101332.75
2022-08-19T15:08:56.098Z,101330.66
2022-08-19T15:11:28.991Z,101340.84
2022-08-19T15:13:57.544Z,101335.66
2022-08-19T15:16:26.530Z,101341.16
2022-08-19T15:18:58.003Z,101350.34
2022-08-19T15:21:27.056Z,101348.06
2022-08-19T15:23:57.297Z,101358.53
2022-08-19T15:26:26.937Z,101374.88
2022-08-19T15:28:54.912Z,101356.78
2022-08-19T15:31:28.189Z,101369.03
2022-08-19T15:33:59.503Z,101384.84
2022-08-19T15:36:29.126Z,101382.72
2022-08-19T15:38:57.344Z,101363.47
2022-08-19T15:41:28.306Z,101382.38
2022-08-19T15:44:04.641Z,101374.28
2022-08-19T15:46:33.993Z,101389.78
2022-08-19T15:49:01.601Z,101391.66
2022-08-19T15:51:35.641Z,101397.28
2022-08-19T15:54:09.985Z,101397.72
2022-08-19T15:57:07.298Z,101420.91
2022-08-19T15:59:54.750Z,101412.94
2022-08-19T16:02:46.227Z,101407.03
2022-08-19T16:05:35.981Z,101418.31
2022-08-19T16:08:04.010Z,101436.47
2022-08-19T16:10:31.614Z,101419.28
2022-08-19T16:12:59.462Z,101427.47
2022-08-19T16:15:29.192Z,101421.56
2022-08-19T16:17:58.509Z,101427.50
2022-08-19T16:20:28.961Z,101437.75
2022-08-19T16:22:58.755Z,101464.78
2022-08-19T16:25:28.798Z,101451.16
2022-08-19T16:28:07.571Z,101457.06
2022-08-19T16:30:39.132Z,101513.72
2022-08-19T16:33:08.675Z,101468.63
2022-08-19T16:35:39.659Z,101469.66
2022-08-19T16:38:07.256Z,101484.03
2022-08-19T16:40:35.415Z,101459.88
2022-08-19T16:43:03.446Z,101491.41
2022-08-19T16:45:31.061Z,101501.66
2022-08-19T16:47:58.606Z,101517.69
2022-08-19T16:50:47.850Z,101519.97
2022-08-19T16:53:17.957Z,101524.50
2022-08-19T16:55:51.111Z,101530.97
2022-08-19T16:58:19.287Z,101539.06
2022-08-19T17:00:48.792Z,101547.59
2022-08-19T17:03:18.118Z,101532.47
2022-08-19T17:05:53.827Z,101541.59
2022-08-19T17:08:22.985Z,101542.28
2022-08-19T17:11:16.607Z,101546.72
2022-08-19T17:13:39.216Z,101557.50
2022-08-19T17:16:08.475Z,101558.72
2022-08-19T17:18:35.937Z,101569.50
2022-08-19T17:21:03.588Z,101576.97
2022-08-19T17:23:42.686Z,101578.91
2022-08-19T17:26:18.129Z,101558.22
2022-08-19T17:28:52.034Z,101568.69
2022-08-19T17:31:23.376Z,101567.38
2022-08-19T17:33:52.089Z,101577.56
2022-08-19T17:36:24.178Z,101574.88
2022-08-19T17:38:55.536Z,101593.47
2022-08-19T17:41:27.582Z,101606.09
2022-08-19T17:43:55.079Z,101612.66
2022-08-19T17:46:22.665Z,101607.75
2022-08-19T17:48:53.022Z,101588.72
2022-08-19T17:51:27.633Z,101601.25
2022-08-19T17:53:55.271Z,101606.47
2022-08-19T17:56:24.980Z,101610.06
2022-08-19T17:59:00.315Z,101627.84
2022-08-19T18:01:51.929Z,101620.47
2022-08-19T18:04:20.401Z,101624.66
2022-08-19T18:06:53.248Z,101627.38
2022-08-19T18:09:24.374Z,101614.34
2022-08-19T18:11:54.719Z,101638.09
2022-08-19T18:14:32.055Z,101624.47
2022-08-19T18:17:06.470Z,101631.09
2022-08-19T18:19:41.209Z,101622.34
2022-08-19T18:22:27.843Z,101626.19
2022-08-19T18:24:57.894Z,101637.63
2022-08-19T18:27:28.025Z,101636.53
2022-08-19T18:29:59.963Z,101638.97
2022-08-19T18:32:40.084Z,101646.31
2022-08-19T18:35:17.434Z,101643.03
2022-08-19T18:37:46.149Z,101649.03
2022-08-19T18:40:37.295Z,101644.66
2022-08-19T18:43:25.022Z,101649.84
2022-08-19T18:46:10.893Z,101655.34
2022-08-19T18:48:58.490Z,101675.59
2022-08-19T18:51:30.330Z,101663.63
2022-08-19T18:53:59.212Z,101671.63
2022-08-19T18:56:32.038Z,101687.44
2022-08-19T18:59:02.528Z,101671.69
2022-08-19T19:01:35.682Z,101686.41
2022-08-19T19:04:10.866Z,101705.78
2022-08-19T19:06:42.423Z,101669.00
2022-08-19T19:09:17.793Z,101691.66
2022-08-19T19:11:51.613Z,101688.38
2022-08-19T19:14:47.787Z,101687.00
2022-08-19T19:17:15.224Z,101685.97
2022-08-19T19:19:44.937Z,101696.31
2022-08-19T19:22:17.707Z,101698.50
2022-08-19T19:24:45.571Z,101698.50
2022-08-19T19:27:15.917Z,101687.34
2022-08-19T19:29:43.461Z,101677.81
2022-08-19T19:32:19.793Z,101688.19
2022-08-19T19:34:47.867Z,101685.19
2022-08-19T19:37:16.828Z,101690.63
2022-08-19T19:39:45.972Z,101688.75
2022-08-19T19:42:21.380Z,101693.66
2022-08-19T19:44:52.094Z,101696.94
2022-08-19T19:47:20.227Z,101691.47
2022-08-19T19:52:40.493Z,101685.78
2022-08-19T19:55:10.100Z,101666.72
2022-08-19T19:57:39.503Z,101691.50
2022-08-19T20:00:09.112Z,101683.59
2022-08-19T20:02:36.589Z,101689.03
2022-08-19T20:05:05.131Z,101690.13
2022-08-19T20:07:54.657Z,101678.72
2022-08-19T20:10:22.377Z,101685.53
2022-08-19T20:12:55.095Z,101696.97
2022-08-19T20:15:24.459Z,101711.69
2022-08-19T20:17:51.900Z,101698.31
2022-08-19T20:20:19.636Z,101688.81
2022-08-19T20:22:47.839Z,101683.88
2022-08-19T20:25:18.038Z,101687.16
2022-08-19T20:27:50.512Z,101686.59
2022-08-19T20:30:20.538Z,101687.16
2022-08-19T20:32:49.866Z,101674.91
2022-08-19T20:35:19.567Z,101677.34
2022-08-19T20:37:47.427Z,101660.75
2022-08-19T20:40:16.935Z,101686.91
2022-08-19T20:42:50.864Z,101681.72
2022-08-19T20:45:32.316Z,101697.50
2022-08-19T20:48:03.617Z,101690.41
2022-08-19T20:50:36.620Z,101688.00
2022-08-19T20:53:16.533Z,101701.63
2022-08-19T20:55:46.386Z,101694.25
2022-08-19T20:58:15.043Z,101677.09
2022-08-19T21:00:46.152Z,101692.06
2022-08-19T21:03:18.164Z,101681.97
2022-08-19T21:05:48.919Z,101694.78
2022-08-19T21:08:18.601Z,101675.44
2022-08-19T21:10:48.187Z,101683.34
2022-08-19T21:13:17.210Z,101688.53
2022-08-19T21:15:44.982Z,101684.44
2022-08-19T21:18:14.573Z,101674.91
2022-08-19T21:20:43.401Z,101681.97
2022-08-19T21:23:14.421Z,101683.63
2022-08-19T21:25:43.558Z,101692.34
2022-08-19T21:28:34.994Z,101684.16
2022-08-19T21:31:06.654Z,101697.78
2022-08-19T21:33:34.930Z,101676.00
2022-08-19T21:36:05.179Z,101690.44
2022-08-19T21:38:33.384Z,101683.34
2022-08-19T21:41:05.768Z,101677.34
2022-08-19T21:43:35.092Z,101682.78
2022-08-19T21:46:02.708Z,101680.06
2022-08-19T21:48:30.734Z,101663.72
2022-08-19T21:50:58.203Z,101660.47
2022-08-19T21:53:25.945Z,101656.94
2022-08-19T21:56:01.206Z,101670.00
2022-08-19T21:58:30.661Z,101652.84
2022-08-19T22:01:00.312Z,101656.66
2022-08-19T22:03:28.905Z,101670.56
2022-08-19T22:05:56.849Z,101661.56
2022-08-19T22:08:24.887Z,101664.81
2022-08-19T22:10:52.548Z,101650.38
2022-08-19T22:13:20.728Z,101639.81
2022-08-19T22:15:48.999Z,101641.41
2022-08-19T22:18:18.073Z,101653.13
2022-08-19T22:20:48.107Z,101658.31
2022-08-19T22:23:15.567Z,101685.53
2022-08-19T22:25:48.201Z,101703.78
2022-08-19T22:28:18.911Z,101698.06
2022-08-19T22:30:52.992Z,101702.97
2022-08-19T22:33:23.759Z,101707.31
2022-08-19T22:35:53.876Z,101700.50
2022-08-19T22:38:22.362Z,101701.59
2022-08-19T22:40:52.017Z,101704.31
2022-08-19T22:43:23.290Z,101697.22
2022-08-19T22:45:53.546Z,101713.31
2022-08-19T22:48:23.669Z,101712.22
2022-08-19T22:51:11.672Z,101709.50
2022-08-19T22:53:42.766Z,101714.13
2022-08-19T22:56:15.350Z,101720.38
2022-08-19T22:58:43.810Z,101724.75
2022-08-19T23:01:27.428Z,101718.75
2022-08-19T23:04:00.161Z,101731.00
2022-08-19T23:06:33.519Z,101717.13
2022-08-19T23:09:07.286Z,101716.56
2022-08-19T23:11:39.854Z,101707.31
2022-08-19T23:14:11.604Z,101710.56
2022-08-19T23:16:41.641Z,101713.81
2022-08-19T23:19:10.989Z,101719.78
2022-08-19T23:21:43.409Z,101729.06
2022-08-19T23:24:13.008Z,101728.78
2022-08-19T23:27:00.561Z,101730.69
2022-08-19T23:29:50.880Z,101727.16
2022-08-19T23:32:19.985Z,101728.50
2022-08-19T23:34:47.898Z,101732.31
2022-08-19T23:37:15.928Z,101723.63
2022-08-19T23:39:45.249Z,101724.63
2022-08-19T23:42:13.902Z,101721.69
2022-08-19T23:44:51.521Z,101718.91
2022-08-19T23:47:23.829Z,101720.56
2022-08-19T23:49:51.448Z,101716.16
2022-08-19T23:52:19.504Z,101728.41
2022-08-19T23:54:48.008Z,101731.13
2022-08-19T23:57:15.579Z,101732.22
2022-08-19T23:59:46.502Z,101729.75
